Terminal Aerodrome Forecast
Issued by NWS Birmingham, AL

Home | Current Version | Previous Version | Text Only | Print | Product List | Glossary On
Versions: 1 2 3 4 5 6 7 8 9 10 11 12 13 14 15 16 17 18 19 20 21 22
000
FTUS44 KBMX 021128
TAFBHM
TAF
KBHM 021128Z 0212/0312 22007KT P6SM BKN010
     FM021400 24010KT P6SM BKN020
     FM021700 24010KT P6SM VCTS BKN040CB
     FM030000 22012KT P6SM SCT025 OVC200
     FM030600 21012KT P6SM VCTS BKN025CB=

USA.gov is the U.S. government's official web portal to all federal, state and local government web resources and services.